sensor_id;sensor_type;location;lat;lon;timestamp;P1;durP1;ratioP1;P2;durP2;ratioP2
10888;SDS011;5497;51.388;6.780;2023-01-04T00:02:17;15.17;;;4.30;;
10888;SDS011;5497;51.388;6.780;2023-01-04T00:04:44;14.57;;;3.93;;
10888;SDS011;5497;51.388;6.780;2023-01-04T00:07:11;16.63;;;4.40;;
10888;SDS011;5497;51.388;6.780;2023-01-04T00:09:38;18.00;;;4.43;;
10888;SDS011;5497;51.388;6.780;2023-01-04T00:12:06;12.40;;;2.97;;
10888;SDS011;5497;51.388;6.780;2023-01-04T00:14:36;19.87;;;3.93;;
10888;SDS011;5497;51.388;6.780;2023-01-04T00:17:03;17.00;;;4.37;;
10888;SDS011;5497;51.388;6.780;2023-01-04T00:19:31;15.47;;;3.70;;
10888;SDS011;5497;51.388;6.780;2023-01-04T00:21:58;13.33;;;3.73;;
10888;SDS011;5497;51.388;6.780;2023-01-04T00:24:24;16.13;;;4.17;;
10888;SDS011;5497;51.388;6.780;2023-01-04T00:26:51;14.83;;;4.03;;
10888;SDS011;5497;51.388;6.780;2023-01-04T00:29:20;16.40;;;3.93;;
10888;SDS011;5497;51.388;6.780;2023-01-04T00:31:47;14.23;;;4.10;;
10888;SDS011;5497;51.388;6.780;2023-01-04T00:34:15;15.00;;;4.17;;
10888;SDS011;5497;51.388;6.780;2023-01-04T00:36:43;17.67;;;4.63;;
10888;SDS011;5497;51.388;6.780;2023-01-04T00:39:11;16.33;;;4.47;;
10888;SDS011;5497;51.388;6.780;2023-01-04T00:41:44;20.30;;;4.77;;
10888;SDS011;5497;51.388;6.780;2023-01-04T00:44:12;14.90;;;4.20;;
10888;SDS011;5497;51.388;6.780;2023-01-04T00:46:41;17.40;;;4.77;;
10888;SDS011;5497;51.388;6.780;2023-01-04T00:49:10;16.87;;;4.30;;
10888;SDS011;5497;51.388;6.780;2023-01-04T00:51:38;13.40;;;3.60;;
10888;SDS011;5497;51.388;6.780;2023-01-04T00:54:06;14.97;;;4.30;;
10888;SDS011;5497;51.388;6.780;2023-01-04T00:56:36;16.43;;;4.13;;
10888;SDS011;5497;51.388;6.780;2023-01-04T00:59:03;12.27;;;3.50;;
10888;SDS011;5497;51.388;6.780;2023-01-04T01:01:31;12.77;;;3.37;;
10888;SDS011;5497;51.388;6.780;2023-01-04T01:04:00;12.23;;;3.50;;
10888;SDS011;5497;51.388;6.780;2023-01-04T01:06:29;15.30;;;3.70;;
10888;SDS011;5497;51.388;6.780;2023-01-04T01:08:57;14.87;;;3.90;;
10888;SDS011;5497;51.388;6.780;2023-01-04T01:11:25;17.37;;;4.50;;
10888;SDS011;5497;51.388;6.780;2023-01-04T01:13:52;15.13;;;3.77;;
10888;SDS011;5497;51.388;6.780;2023-01-04T01:16:20;14.80;;;4.13;;
10888;SDS011;5497;51.388;6.780;2023-01-04T01:18:48;14.87;;;4.00;;
10888;SDS011;5497;51.388;6.780;2023-01-04T01:21:20;13.83;;;3.83;;
10888;SDS011;5497;51.388;6.780;2023-01-04T01:23:47;12.93;;;3.50;;
10888;SDS011;5497;51.388;6.780;2023-01-04T01:26:17;13.03;;;3.50;;
10888;SDS011;5497;51.388;6.780;2023-01-04T01:28:45;12.73;;;3.40;;
10888;SDS011;5497;51.388;6.780;2023-01-04T01:31:13;14.00;;;3.80;;
10888;SDS011;5497;51.388;6.780;2023-01-04T01:33:42;17.23;;;4.27;;
10888;SDS011;5497;51.388;6.780;2023-01-04T01:36:10;22.13;;;4.77;;
10888;SDS011;5497;51.388;6.780;2023-01-04T01:38:39;14.27;;;4.07;;
10888;SDS011;5497;51.388;6.780;2023-01-04T01:41:09;12.07;;;3.63;;
10888;SDS011;5497;51.388;6.780;2023-01-04T01:47:33;12.03;;;3.07;;
10888;SDS011;5497;51.388;6.780;2023-01-04T01:50:15;10.67;;;3.40;;
10888;SDS011;5497;51.388;6.780;2023-01-04T01:52:47;12.73;;;3.70;;
10888;SDS011;5497;51.388;6.780;2023-01-04T01:55:16;16.60;;;4.03;;
10888;SDS011;5497;51.388;6.780;2023-01-04T01:57:48;14.97;;;4.07;;
10888;SDS011;5497;51.388;6.780;2023-01-04T02:00:18;21.00;;;4.53;;
10888;SDS011;5497;51.388;6.780;2023-01-04T02:02:48;18.33;;;4.13;;
10888;SDS011;5497;51.388;6.780;2023-01-04T02:05:22;13.90;;;4.07;;
10888;SDS011;5497;51.388;6.780;2023-01-04T02:07:51;14.63;;;4.43;;
10888;SDS011;5497;51.388;6.780;2023-01-04T02:10:20;15.03;;;4.00;;
10888;SDS011;5497;51.388;6.780;2023-01-04T02:12:49;12.93;;;3.33;;
10888;SDS011;5497;51.388;6.780;2023-01-04T02:15:16;14.23;;;3.90;;
10888;SDS011;5497;51.388;6.780;2023-01-04T02:17:45;19.47;;;4.80;;
10888;SDS011;5497;51.388;6.780;2023-01-04T02:20:23;13.27;;;3.40;;
10888;SDS011;5497;51.388;6.780;2023-01-04T02:29:15;15.23;;;4.23;;
10888;SDS011;5497;51.388;6.780;2023-01-04T02:32:00;16.63;;;4.20;;
10888;SDS011;5497;51.388;6.780;2023-01-04T02:34:33;12.90;;;3.50;;
10888;SDS011;5497;51.388;6.780;2023-01-04T02:37:07;14.17;;;3.83;;
10888;SDS011;5497;51.388;6.780;2023-01-04T02:39:46;9.50;;;2.93;;
10888;SDS011;5497;51.388;6.780;2023-01-04T02:42:20;17.17;;;4.20;;
10888;SDS011;5497;51.388;6.780;2023-01-04T02:45:16;12.60;;;3.53;;
10888;SDS011;5497;51.388;6.780;2023-01-04T02:47:47;12.90;;;3.93;;
10888;SDS011;5497;51.388;6.780;2023-01-04T02:50:33;13.20;;;3.83;;
10888;SDS011;5497;51.388;6.780;2023-01-04T02:53:03;16.77;;;4.13;;
10888;SDS011;5497;51.388;6.780;2023-01-04T02:55:39;17.30;;;4.47;;
10888;SDS011;5497;51.388;6.780;2023-01-04T02:58:16;20.40;;;4.80;;
10888;SDS011;5497;51.388;6.780;2023-01-04T03:01:05;15.03;;;4.13;;
10888;SDS011;5497;51.388;6.780;2023-01-04T03:04:00;12.90;;;3.47;;
10888;SDS011;5497;51.388;6.780;2023-01-04T03:06:55;19.90;;;4.60;;
10888;SDS011;5497;51.388;6.780;2023-01-04T03:09:27;14.10;;;3.97;;
10888;SDS011;5497;51.388;6.780;2023-01-04T03:12:00;16.90;;;4.50;;
10888;SDS011;5497;51.388;6.780;2023-01-04T03:15:03;15.90;;;4.63;;
10888;SDS011;5497;51.388;6.780;2023-01-04T03:17:36;19.47;;;4.37;;
10888;SDS011;5497;51.388;6.780;2023-01-04T03:20:14;11.90;;;3.70;;
10888;SDS011;5497;51.388;6.780;2023-01-04T03:22:45;20.03;;;4.13;;
10888;SDS011;5497;51.388;6.780;2023-01-04T03:25:36;11.60;;;3.43;;
10888;SDS011;5497;51.388;6.780;2023-01-04T03:28:23;11.33;;;3.03;;
10888;SDS011;5497;51.388;6.780;2023-01-04T03:31:11;15.97;;;3.53;;
10888;SDS011;5497;51.388;6.780;2023-01-04T03:34:02;11.23;;;3.40;;
10888;SDS011;5497;51.388;6.780;2023-01-04T03:36:55;10.90;;;2.90;;
10888;SDS011;5497;51.388;6.780;2023-01-04T03:39:31;10.50;;;2.80;;
10888;SDS011;5497;51.388;6.780;2023-01-04T03:42:26;14.17;;;3.43;;
10888;SDS011;5497;51.388;6.780;2023-01-04T03:45:20;11.53;;;2.90;;
10888;SDS011;5497;51.388;6.780;2023-01-04T03:48:08;12.83;;;3.13;;
10888;SDS011;5497;51.388;6.780;2023-01-04T03:50:57;8.73;;;2.73;;
10888;SDS011;5497;51.388;6.780;2023-01-04T03:53:33;9.73;;;2.80;;
10888;SDS011;5497;51.388;6.780;2023-01-04T03:56:03;10.47;;;3.30;;
10888;SDS011;5497;51.388;6.780;2023-01-04T03:58:33;9.57;;;2.73;;
10888;SDS011;5497;51.388;6.780;2023-01-04T04:01:01;13.50;;;3.63;;
10888;SDS011;5497;51.388;6.780;2023-01-04T04:03:29;13.93;;;3.23;;
10888;SDS011;5497;51.388;6.780;2023-01-04T04:06:14;11.60;;;3.20;;
10888;SDS011;5497;51.388;6.780;2023-01-04T04:09:00;11.60;;;3.23;;
10888;SDS011;5497;51.388;6.780;2023-01-04T04:11:27;10.63;;;3.10;;
10888;SDS011;5497;51.388;6.780;2023-01-04T04:13:58;9.90;;;3.00;;
10888;SDS011;5497;51.388;6.780;2023-01-04T04:16:26;11.93;;;3.27;;
10888;SDS011;5497;51.388;6.780;2023-01-04T04:18:53;10.10;;;2.80;;
10888;SDS011;5497;51.388;6.780;2023-01-04T04:21:20;11.57;;;3.30;;
10888;SDS011;5497;51.388;6.780;2023-01-04T04:23:47;10.87;;;3.10;;
10888;SDS011;5497;51.388;6.780;2023-01-04T04:26:16;10.67;;;3.27;;
10888;SDS011;5497;51.388;6.780;2023-01-04T04:28:43;9.87;;;2.90;;
10888;SDS011;5497;51.388;6.780;2023-01-04T04:31:10;14.93;;;3.57;;
10888;SDS011;5497;51.388;6.780;2023-01-04T04:33:37;10.87;;;3.17;;
10888;SDS011;5497;51.388;6.780;2023-01-04T04:36:04;12.33;;;3.97;;
10888;SDS011;5497;51.388;6.780;2023-01-04T04:38:32;10.37;;;3.00;;
10888;SDS011;5497;51.388;6.780;2023-01-04T04:41:04;13.97;;;3.97;;
10888;SDS011;5497;51.388;6.780;2023-01-04T04:43:51;13.33;;;3.70;;
10888;SDS011;5497;51.388;6.780;2023-01-04T04:46:18;8.67;;;2.53;;
10888;SDS011;5497;51.388;6.780;2023-01-04T04:48:45;10.80;;;3.10;;
10888;SDS011;5497;51.388;6.780;2023-01-04T04:51:12;10.33;;;2.87;;
10888;SDS011;5497;51.388;6.780;2023-01-04T04:53:39;12.60;;;3.33;;
10888;SDS011;5497;51.388;6.780;2023-01-04T04:56:07;10.93;;;3.40;;
10888;SDS011;5497;51.388;6.780;2023-01-04T04:58:34;11.27;;;3.40;;
10888;SDS011;5497;51.388;6.780;2023-01-04T05:01:03;11.10;;;3.17;;
10888;SDS011;5497;51.388;6.780;2023-01-04T05:03:30;10.00;;;2.97;;
10888;SDS011;5497;51.388;6.780;2023-01-04T05:05:57;9.30;;;2.93;;
10888;SDS011;5497;51.388;6.780;2023-01-04T05:08:24;8.20;;;2.30;;
10888;SDS011;5497;51.388;6.780;2023-01-04T05:10:51;7.70;;;2.13;;
10888;SDS011;5497;51.388;6.780;2023-01-04T05:13:18;7.00;;;2.10;;
10888;SDS011;5497;51.388;6.780;2023-01-04T05:15:45;9.60;;;2.20;;
10888;SDS011;5497;51.388;6.780;2023-01-04T05:18:15;10.77;;;2.80;;
10888;SDS011;5497;51.388;6.780;2023-01-04T05:20:44;7.87;;;2.73;;
10888;SDS011;5497;51.388;6.780;2023-01-04T05:23:11;9.10;;;2.83;;
10888;SDS011;5497;51.388;6.780;2023-01-04T05:25:39;7.43;;;2.37;;
10888;SDS011;5497;51.388;6.780;2023-01-04T05:30:43;8.67;;;2.57;;
10888;SDS011;5497;51.388;6.780;2023-01-04T05:33:17;8.70;;;2.67;;
10888;SDS011;5497;51.388;6.780;2023-01-04T05:35:45;11.77;;;2.87;;
10888;SDS011;5497;51.388;6.780;2023-01-04T05:38:12;11.97;;;3.03;;
10888;SDS011;5497;51.388;6.780;2023-01-04T05:40:39;9.17;;;2.70;;
10888;SDS011;5497;51.388;6.780;2023-01-04T05:43:06;8.67;;;2.67;;
10888;SDS011;5497;51.388;6.780;2023-01-04T05:45:33;10.87;;;3.07;;
10888;SDS011;5497;51.388;6.780;2023-01-04T05:48:01;10.60;;;3.00;;
10888;SDS011;5497;51.388;6.780;2023-01-04T05:50:29;22.27;;;3.70;;
10888;SDS011;5497;51.388;6.780;2023-01-04T05:53:02;9.13;;;2.60;;
10888;SDS011;5497;51.388;6.780;2023-01-04T05:55:30;9.37;;;2.60;;
10888;SDS011;5497;51.388;6.780;2023-01-04T05:57:57;7.40;;;2.47;;
10888;SDS011;5497;51.388;6.780;2023-01-04T06:00:24;14.20;;;3.23;;
10888;SDS011;5497;51.388;6.780;2023-01-04T06:02:51;8.97;;;2.60;;
10888;SDS011;5497;51.388;6.780;2023-01-04T06:05:19;8.30;;;2.60;;
10888;SDS011;5497;51.388;6.780;2023-01-04T06:07:49;8.43;;;2.97;;
10888;SDS011;5497;51.388;6.780;2023-01-04T06:10:16;11.00;;;2.90;;
10888;SDS011;5497;51.388;6.780;2023-01-04T06:12:44;10.70;;;3.30;;
10888;SDS011;5497;51.388;6.780;2023-01-04T06:15:12;9.43;;;2.77;;
10888;SDS011;5497;51.388;6.780;2023-01-04T06:17:39;9.67;;;2.93;;
10888;SDS011;5497;51.388;6.780;2023-01-04T06:20:07;8.23;;;2.63;;
10888;SDS011;5497;51.388;6.780;2023-01-04T06:22:35;9.73;;;2.50;;
10888;SDS011;5497;51.388;6.780;2023-01-04T06:25:08;7.33;;;2.37;;
10888;SDS011;5497;51.388;6.780;2023-01-04T06:27:35;8.07;;;2.53;;
10888;SDS011;5497;51.388;6.780;2023-01-04T06:30:03;9.73;;;2.67;;
10888;SDS011;5497;51.388;6.780;2023-01-04T06:32:30;6.50;;;2.23;;
10888;SDS011;5497;51.388;6.780;2023-01-04T06:34:57;9.30;;;2.57;;
10888;SDS011;5497;51.388;6.780;2023-01-04T06:37:24;7.93;;;2.67;;
10888;SDS011;5497;51.388;6.780;2023-01-04T06:39:52;8.77;;;2.73;;
10888;SDS011;5497;51.388;6.780;2023-01-04T06:42:24;9.57;;;2.43;;
10888;SDS011;5497;51.388;6.780;2023-01-04T06:45:10;9.40;;;2.73;;
10888;SDS011;5497;51.388;6.780;2023-01-04T06:47:38;11.37;;;2.97;;
10888;SDS011;5497;51.388;6.780;2023-01-04T06:50:05;8.83;;;2.70;;
10888;SDS011;5497;51.388;6.780;2023-01-04T06:52:33;9.57;;;3.07;;
10888;SDS011;5497;51.388;6.780;2023-01-04T06:55:00;9.97;;;2.53;;
10888;SDS011;5497;51.388;6.780;2023-01-04T06:57:28;12.77;;;3.30;;
10888;SDS011;5497;51.388;6.780;2023-01-04T06:59:56;8.90;;;2.80;;
10888;SDS011;5497;51.388;6.780;2023-01-04T07:02:23;7.77;;;2.80;;
10888;SDS011;5497;51.388;6.780;2023-01-04T07:04:50;6.63;;;2.27;;
10888;SDS011;5497;51.388;6.780;2023-01-04T07:07:17;8.70;;;3.07;;
10888;SDS011;5497;51.388;6.780;2023-01-04T07:09:44;8.43;;;2.93;;
10888;SDS011;5497;51.388;6.780;2023-01-04T07:12:11;12.33;;;3.37;;
10888;SDS011;5497;51.388;6.780;2023-01-04T07:14:40;8.17;;;2.70;;
10888;SDS011;5497;51.388;6.780;2023-01-04T07:17:07;8.87;;;2.70;;
10888;SDS011;5497;51.388;6.780;2023-01-04T07:19:34;10.27;;;3.30;;
10888;SDS011;5497;51.388;6.780;2023-01-04T07:22:00;10.07;;;3.17;;
10888;SDS011;5497;51.388;6.780;2023-01-04T07:24:27;7.93;;;2.60;;
10888;SDS011;5497;51.388;6.780;2023-01-04T07:26:54;10.80;;;3.33;;
10888;SDS011;5497;51.388;6.780;2023-01-04T07:29:22;12.40;;;3.53;;
10888;SDS011;5497;51.388;6.780;2023-01-04T07:31:50;9.43;;;2.90;;
10888;SDS011;5497;51.388;6.780;2023-01-04T07:34:19;9.07;;;2.67;;
10888;SDS011;5497;51.388;6.780;2023-01-04T07:36:47;9.33;;;2.67;;
10888;SDS011;5497;51.388;6.780;2023-01-04T07:39:17;9.10;;;3.00;;
10888;SDS011;5497;51.388;6.780;2023-01-04T07:41:45;8.93;;;2.87;;
10888;SDS011;5497;51.388;6.780;2023-01-04T07:44:16;9.57;;;3.00;;
10888;SDS011;5497;51.388;6.780;2023-01-04T07:46:43;7.47;;;2.60;;
10888;SDS011;5497;51.388;6.780;2023-01-04T07:49:13;7.77;;;2.50;;
10888;SDS011;5497;51.388;6.780;2023-01-04T07:51:42;8.77;;;2.57;;
10888;SDS011;5497;51.388;6.780;2023-01-04T07:54:13;8.17;;;2.47;;
10888;SDS011;5497;51.388;6.780;2023-01-04T07:56:40;7.23;;;2.60;;
10888;SDS011;5497;51.388;6.780;2023-01-04T07:59:07;8.17;;;2.53;;
10888;SDS011;5497;51.388;6.780;2023-01-04T08:01:36;8.83;;;2.40;;
10888;SDS011;5497;51.388;6.780;2023-01-04T08:04:04;7.83;;;2.87;;
10888;SDS011;5497;51.388;6.780;2023-01-04T08:06:33;8.20;;;2.50;;
10888;SDS011;5497;51.388;6.780;2023-01-04T08:09:01;10.00;;;3.03;;
10888;SDS011;5497;51.388;6.780;2023-01-04T08:11:28;5.90;;;2.13;;
10888;SDS011;5497;51.388;6.780;2023-01-04T08:13:55;10.73;;;3.10;;
10888;SDS011;5497;51.388;6.780;2023-01-04T08:16:23;6.37;;;2.10;;
10888;SDS011;5497;51.388;6.780;2023-01-04T08:18:57;7.83;;;2.53;;
10888;SDS011;5497;51.388;6.780;2023-01-04T08:21:25;8.50;;;2.50;;
10888;SDS011;5497;51.388;6.780;2023-01-04T08:23:55;9.00;;;2.90;;
10888;SDS011;5497;51.388;6.780;2023-01-04T08:26:22;8.77;;;2.77;;
10888;SDS011;5497;51.388;6.780;2023-01-04T08:28:49;7.53;;;2.10;;
10888;SDS011;5497;51.388;6.780;2023-01-04T08:31:18;11.83;;;3.37;;
10888;SDS011;5497;51.388;6.780;2023-01-04T08:33:47;11.70;;;3.20;;
10888;SDS011;5497;51.388;6.780;2023-01-04T08:36:16;10.27;;;2.70;;
10888;SDS011;5497;51.388;6.780;2023-01-04T08:38:45;7.27;;;2.40;;
10888;SDS011;5497;51.388;6.780;2023-01-04T08:41:14;8.17;;;2.67;;
10888;SDS011;5497;51.388;6.780;2023-01-04T08:43:43;7.53;;;2.40;;
10888;SDS011;5497;51.388;6.780;2023-01-04T08:46:10;9.67;;;2.83;;
10888;SDS011;5497;51.388;6.780;2023-01-04T08:48:38;10.53;;;2.53;;
10888;SDS011;5497;51.388;6.780;2023-01-04T08:51:07;12.03;;;2.83;;
10888;SDS011;5497;51.388;6.780;2023-01-04T08:53:36;10.57;;;2.73;;
10888;SDS011;5497;51.388;6.780;2023-01-04T08:56:04;7.27;;;2.57;;
10888;SDS011;5497;51.388;6.780;2023-01-04T08:58:36;8.60;;;2.33;;
10888;SDS011;5497;51.388;6.780;2023-01-04T09:03:56;8.93;;;2.20;;
10888;SDS011;5497;51.388;6.780;2023-01-04T09:06:23;13.47;;;3.50;;
10888;SDS011;5497;51.388;6.780;2023-01-04T09:08:50;10.07;;;3.07;;
10888;SDS011;5497;51.388;6.780;2023-01-04T09:11:18;11.70;;;3.50;;
10888;SDS011;5497;51.388;6.780;2023-01-04T09:13:48;12.90;;;3.43;;
10888;SDS011;5497;51.388;6.780;2023-01-04T09:16:19;10.30;;;3.37;;
10888;SDS011;5497;51.388;6.780;2023-01-04T09:18:46;11.30;;;3.27;;
10888;SDS011;5497;51.388;6.780;2023-01-04T09:21:15;10.33;;;3.03;;
10888;SDS011;5497;51.388;6.780;2023-01-04T09:23:44;12.53;;;3.07;;
10888;SDS011;5497;51.388;6.780;2023-01-04T09:26:12;9.23;;;2.77;;
10888;SDS011;5497;51.388;6.780;2023-01-04T09:28:40;10.30;;;3.23;;
10888;SDS011;5497;51.388;6.780;2023-01-04T09:31:10;10.30;;;3.37;;
10888;SDS011;5497;51.388;6.780;2023-01-04T09:33:38;12.93;;;3.47;;
10888;SDS011;5497;51.388;6.780;2023-01-04T09:36:06;11.37;;;3.30;;
10888;SDS011;5497;51.388;6.780;2023-01-04T09:38:34;9.13;;;2.87;;
10888;SDS011;5497;51.388;6.780;2023-01-04T09:41:04;11.30;;;2.93;;
10888;SDS011;5497;51.388;6.780;2023-01-04T09:43:42;9.37;;;2.60;;
10888;SDS011;5497;51.388;6.780;2023-01-04T09:46:16;8.53;;;2.50;;
10888;SDS011;5497;51.388;6.780;2023-01-04T09:48:54;9.70;;;2.77;;
10888;SDS011;5497;51.388;6.780;2023-01-04T09:51:31;10.07;;;2.90;;
10888;SDS011;5497;51.388;6.780;2023-01-04T09:54:02;8.30;;;2.60;;
10888;SDS011;5497;51.388;6.780;2023-01-04T09:56:35;10.63;;;3.10;;
10888;SDS011;5497;51.388;6.780;2023-01-04T09:59:04;11.17;;;3.00;;
10888;SDS011;5497;51.388;6.780;2023-01-04T10:01:39;10.10;;;2.90;;
10888;SDS011;5497;51.388;6.780;2023-01-04T10:04:13;10.90;;;3.10;;
10888;SDS011;5497;51.388;6.780;2023-01-04T10:06:44;8.40;;;2.50;;
10888;SDS011;5497;51.388;6.780;2023-01-04T10:09:12;8.57;;;2.80;;
10888;SDS011;5497;51.388;6.780;2023-01-04T10:14:41;11.10;;;3.07;;
10888;SDS011;5497;51.388;6.780;2023-01-04T10:17:28;8.87;;;2.93;;
10888;SDS011;5497;51.388;6.780;2023-01-04T10:20:13;9.50;;;2.90;;
10888;SDS011;5497;51.388;6.780;2023-01-04T10:23:07;11.07;;;3.00;;
10888;SDS011;5497;51.388;6.780;2023-01-04T10:25:40;8.57;;;2.60;;
10888;SDS011;5497;51.388;6.780;2023-01-04T10:28:22;10.60;;;2.83;;
10888;SDS011;5497;51.388;6.780;2023-01-04T10:31:03;16.50;;;4.90;;
10888;SDS011;5497;51.388;6.780;2023-01-04T10:33:38;9.30;;;2.80;;
10888;SDS011;5497;51.388;6.780;2023-01-04T10:36:16;6.17;;;2.33;;
10888;SDS011;5497;51.388;6.780;2023-01-04T10:38:44;9.53;;;2.90;;
10888;SDS011;5497;51.388;6.780;2023-01-04T10:41:14;9.33;;;2.90;;
10888;SDS011;5497;51.388;6.780;2023-01-04T10:43:47;10.30;;;3.00;;
10888;SDS011;5497;51.388;6.780;2023-01-04T10:46:28;9.53;;;3.17;;
10888;SDS011;5497;51.388;6.780;2023-01-04T10:49:02;8.00;;;2.63;;
10888;SDS011;5497;51.388;6.780;2023-01-04T10:51:39;7.60;;;2.70;;
10888;SDS011;5497;51.388;6.780;2023-01-04T10:54:12;8.93;;;2.90;;
10888;SDS011;5497;51.388;6.780;2023-01-04T10:56:48;11.93;;;3.43;;
10888;SDS011;5497;51.388;6.780;2023-01-04T10:59:22;11.60;;;3.20;;
10888;SDS011;5497;51.388;6.780;2023-01-04T11:01:55;12.73;;;3.77;;
10888;SDS011;5497;51.388;6.780;2023-01-04T11:04:27;12.00;;;3.33;;
10888;SDS011;5497;51.388;6.780;2023-01-04T11:07:01;11.33;;;3.23;;
10888;SDS011;5497;51.388;6.780;2023-01-04T11:09:32;11.03;;;3.27;;
10888;SDS011;5497;51.388;6.780;2023-01-04T11:12:05;13.23;;;3.57;;
10888;SDS011;5497;51.388;6.780;2023-01-04T11:14:35;9.50;;;2.90;;
10888;SDS011;5497;51.388;6.780;2023-01-04T11:17:02;11.50;;;3.40;;
10888;SDS011;5497;51.388;6.780;2023-01-04T11:19:32;16.40;;;4.50;;
10888;SDS011;5497;51.388;6.780;2023-01-04T11:22:00;8.87;;;3.00;;
10888;SDS011;5497;51.388;6.780;2023-01-04T11:24:33;12.57;;;3.63;;
10888;SDS011;5497;51.388;6.780;2023-01-04T11:27:04;14.03;;;3.50;;
10888;SDS011;5497;51.388;6.780;2023-01-04T11:29:37;12.67;;;3.90;;
10888;SDS011;5497;51.388;6.780;2023-01-04T11:32:13;12.07;;;3.30;;
10888;SDS011;5497;51.388;6.780;2023-01-04T11:34:49;9.63;;;3.20;;
10888;SDS011;5497;51.388;6.780;2023-01-04T11:37:25;13.93;;;3.77;;
10888;SDS011;5497;51.388;6.780;2023-01-04T11:40:09;10.87;;;3.13;;
10888;SDS011;5497;51.388;6.780;2023-01-04T11:42:38;10.43;;;3.30;;
10888;SDS011;5497;51.388;6.780;2023-01-04T11:45:08;15.20;;;3.50;;
10888;SDS011;5497;51.388;6.780;2023-01-04T11:47:46;11.37;;;3.53;;
10888;SDS011;5497;51.388;6.780;2023-01-04T11:53:01;9.87;;;3.03;;
10888;SDS011;5497;51.388;6.780;2023-01-04T11:55:29;10.47;;;3.17;;
10888;SDS011;5497;51.388;6.780;2023-01-04T11:58:04;7.53;;;2.73;;
10888;SDS011;5497;51.388;6.780;2023-01-04T12:00:32;12.20;;;3.30;;
10888;SDS011;5497;51.388;6.780;2023-01-04T12:03:09;9.87;;;3.07;;
10888;SDS011;5497;51.388;6.780;2023-01-04T12:05:38;10.70;;;3.17;;
10888;SDS011;5497;51.388;6.780;2023-01-04T12:08:06;8.60;;;3.07;;
10888;SDS011;5497;51.388;6.780;2023-01-04T12:10:37;10.27;;;2.90;;
10888;SDS011;5497;51.388;6.780;2023-01-04T12:13:04;12.00;;;3.67;;
10888;SDS011;5497;51.388;6.780;2023-01-04T12:15:36;8.97;;;2.80;;
10888;SDS011;5497;51.388;6.780;2023-01-04T12:18:11;10.27;;;3.33;;
10888;SDS011;5497;51.388;6.780;2023-01-04T12:20:45;9.80;;;3.23;;
10888;SDS011;5497;51.388;6.780;2023-01-04T12:23:12;11.33;;;3.33;;
10888;SDS011;5497;51.388;6.780;2023-01-04T12:25:43;12.40;;;3.60;;
10888;SDS011;5497;51.388;6.780;2023-01-04T12:31:33;12.57;;;3.30;;
10888;SDS011;5497;51.388;6.780;2023-01-04T12:37:06;12.10;;;3.73;;
10888;SDS011;5497;51.388;6.780;2023-01-04T12:39:51;10.37;;;3.40;;
10888;SDS011;5497;51.388;6.780;2023-01-04T12:42:27;13.07;;;3.20;;
10888;SDS011;5497;51.388;6.780;2023-01-04T12:47:49;14.73;;;3.87;;
10888;SDS011;5497;51.388;6.780;2023-01-04T12:53:50;11.60;;;3.23;;
10888;SDS011;5497;51.388;6.780;2023-01-04T12:59:33;8.97;;;3.63;;
10888;SDS011;5497;51.388;6.780;2023-01-04T13:02:11;10.93;;;3.40;;
10888;SDS011;5497;51.388;6.780;2023-01-04T13:04:44;9.30;;;3.00;;
10888;SDS011;5497;51.388;6.780;2023-01-04T13:07:18;11.70;;;3.63;;
10888;SDS011;5497;51.388;6.780;2023-01-04T13:09:51;11.03;;;3.50;;
10888;SDS011;5497;51.388;6.780;2023-01-04T13:12:35;9.77;;;2.97;;
10888;SDS011;5497;51.388;6.780;2023-01-04T13:15:18;10.77;;;3.27;;
10888;SDS011;5497;51.388;6.780;2023-01-04T13:17:50;13.33;;;3.80;;
10888;SDS011;5497;51.388;6.780;2023-01-04T13:20:19;10.97;;;2.83;;
10888;SDS011;5497;51.388;6.780;2023-01-04T13:22:48;9.33;;;2.90;;
10888;SDS011;5497;51.388;6.780;2023-01-04T13:25:20;11.27;;;3.57;;
10888;SDS011;5497;51.388;6.780;2023-01-04T13:27:55;10.97;;;3.37;;
10888;SDS011;5497;51.388;6.780;2023-01-04T13:30:27;10.40;;;2.93;;
10888;SDS011;5497;51.388;6.780;2023-01-04T13:32:58;11.77;;;3.27;;
10888;SDS011;5497;51.388;6.780;2023-01-04T13:35:33;12.40;;;3.43;;
10888;SDS011;5497;51.388;6.780;2023-01-04T13:37:59;10.67;;;3.40;;
10888;SDS011;5497;51.388;6.780;2023-01-04T13:40:28;11.37;;;3.17;;
10888;SDS011;5497;51.388;6.780;2023-01-04T13:43:24;13.90;;;3.77;;
10888;SDS011;5497;51.388;6.780;2023-01-04T13:46:16;7.77;;;2.80;;
10888;SDS011;5497;51.388;6.780;2023-01-04T13:48:45;7.70;;;2.90;;
10888;SDS011;5497;51.388;6.780;2023-01-04T13:51:16;6.77;;;2.60;;
10888;SDS011;5497;51.388;6.780;2023-01-04T13:53:52;6.40;;;2.37;;
10888;SDS011;5497;51.388;6.780;2023-01-04T13:56:21;9.10;;;2.70;;
10888;SDS011;5497;51.388;6.780;2023-01-04T13:58:50;10.20;;;3.03;;
10888;SDS011;5497;51.388;6.780;2023-01-04T14:01:19;12.40;;;3.47;;
10888;SDS011;5497;51.388;6.780;2023-01-04T14:03:48;9.87;;;3.33;;
10888;SDS011;5497;51.388;6.780;2023-01-04T14:06:18;9.60;;;3.03;;
10888;SDS011;5497;51.388;6.780;2023-01-04T14:08:51;9.23;;;3.10;;
10888;SDS011;5497;51.388;6.780;2023-01-04T14:11:34;8.70;;;3.27;;
10888;SDS011;5497;51.388;6.780;2023-01-04T14:14:28;8.10;;;2.60;;
10888;SDS011;5497;51.388;6.780;2023-01-04T14:17:20;8.53;;;2.77;;
10888;SDS011;5497;51.388;6.780;2023-01-04T14:19:52;9.10;;;2.87;;
10888;SDS011;5497;51.388;6.780;2023-01-04T14:22:25;6.67;;;2.40;;
10888;SDS011;5497;51.388;6.780;2023-01-04T14:28:34;10.13;;;2.57;;
10888;SDS011;5497;51.388;6.780;2023-01-04T14:34:07;11.43;;;3.63;;
10888;SDS011;5497;51.388;6.780;2023-01-04T14:36:40;11.93;;;3.40;;
10888;SDS011;5497;51.388;6.780;2023-01-04T14:39:17;8.20;;;2.70;;
10888;SDS011;5497;51.388;6.780;2023-01-04T14:41:54;9.90;;;3.23;;
10888;SDS011;5497;51.388;6.780;2023-01-04T14:44:26;13.30;;;3.10;;
10888;SDS011;5497;51.388;6.780;2023-01-04T14:46:55;9.13;;;3.00;;
10888;SDS011;5497;51.388;6.780;2023-01-04T14:49:23;11.33;;;3.33;;
10888;SDS011;5497;51.388;6.780;2023-01-04T14:51:54;8.80;;;3.00;;
10888;SDS011;5497;51.388;6.780;2023-01-04T14:54:23;9.40;;;3.10;;
10888;SDS011;5497;51.388;6.780;2023-01-04T14:56:52;10.30;;;3.00;;
10888;SDS011;5497;51.388;6.780;2023-01-04T14:59:20;8.87;;;2.93;;
10888;SDS011;5497;51.388;6.780;2023-01-04T15:01:49;9.83;;;3.00;;
10888;SDS011;5497;51.388;6.780;2023-01-04T15:04:17;12.93;;;3.93;;
10888;SDS011;5497;51.388;6.780;2023-01-04T15:06:48;11.40;;;3.23;;
10888;SDS011;5497;51.388;6.780;2023-01-04T15:09:16;10.03;;;3.40;;
10888;SDS011;5497;51.388;6.780;2023-01-04T15:11:43;11.37;;;3.40;;
10888;SDS011;5497;51.388;6.780;2023-01-04T15:14:11;11.00;;;4.37;;
10888;SDS011;5497;51.388;6.780;2023-01-04T15:16:38;16.00;;;6.50;;
10888;SDS011;5497;51.388;6.780;2023-01-04T15:19:07;15.67;;;5.90;;
10888;SDS011;5497;51.388;6.780;2023-01-04T15:21:34;13.83;;;4.90;;
10888;SDS011;5497;51.388;6.780;2023-01-04T15:24:01;9.30;;;3.37;;
10888;SDS011;5497;51.388;6.780;2023-01-04T15:26:28;12.60;;;4.67;;
10888;SDS011;5497;51.388;6.780;2023-01-04T15:28:58;14.20;;;5.00;;
10888;SDS011;5497;51.388;6.780;2023-01-04T15:31:25;14.50;;;5.57;;
10888;SDS011;5497;51.388;6.780;2023-01-04T15:33:52;17.37;;;5.67;;
10888;SDS011;5497;51.388;6.780;2023-01-04T15:36:20;13.50;;;4.73;;
10888;SDS011;5497;51.388;6.780;2023-01-04T15:38:47;11.53;;;3.77;;
10888;SDS011;5497;51.388;6.780;2023-01-04T15:41:15;13.90;;;4.07;;
10888;SDS011;5497;51.388;6.780;2023-01-04T15:43:57;13.97;;;4.63;;
10888;SDS011;5497;51.388;6.780;2023-01-04T15:46:24;12.53;;;4.23;;
10888;SDS011;5497;51.388;6.780;2023-01-04T15:48:51;14.00;;;4.67;;
10888;SDS011;5497;51.388;6.780;2023-01-04T15:51:18;15.40;;;4.80;;
10888;SDS011;5497;51.388;6.780;2023-01-04T15:53:46;13.17;;;4.23;;
10888;SDS011;5497;51.388;6.780;2023-01-04T15:56:15;12.57;;;4.00;;
10888;SDS011;5497;51.388;6.780;2023-01-04T15:58:42;10.43;;;3.90;;
10888;SDS011;5497;51.388;6.780;2023-01-04T16:01:11;13.87;;;3.97;;
10888;SDS011;5497;51.388;6.780;2023-01-04T16:03:39;13.80;;;4.00;;